Dunswell, United Kingdom
Current Conditions -  °F | °C
As of 5:50 PM on Sunday 25 Jan 2015 (Local Time) from EGXV Reporting Station
Broken Clouds Broken Clouds  
Wind Chill:   Ceiling: 12000
Heat Index:   Visibility: 6mi
Dew Point:   Wind: 8mph
Humidity: 87%   Direction: 220°SW
Pressure: 30.18"   Gusts: NA
Location:  53.8°N, 0.37°W
Report Text: EGXV 251750Z AUTO 22007KT 9999 FEW060/// BKN120/// 08/06 Q1022
Loading
Personal Weather Stations






























Interactive Weather Map New forecast layout! Learn more

10-Day Weather Forecast

Advertisements
Track Severe Weather on mobile